Terminal Aerodrome Forecast
Issued by NWS Wichita, KS

Home | Current Version | Previous Version | Text Only | Print | Product List | Glossary Off
Versions: 1 2 3 4 5 6 7 8 9 10 11 12 13 14 15 16 17 18 19 20 21 22

000
FTUS43 KICT 221738
TAFICT
TAF
KICT 221738Z 2218/2318 17014G20KT P6SM SCT250
     FM230600 17008KT P6SM SCT035 BKN050
     FM231000 17010KT P6SM SCT012 BKN035
     FM231600 18020G30KT P6SM BKN050=

USA.gov is the U.S. government's official web portal to all federal, state and local government web resources and services.